Terminal Aerodrome Forecast
Issued by NWS St Louis, MO

Home | Current Version | Previous Version | Text Only | Print | Product List | Glossary On
Versions: 1 2 3 4 5 6 7 8 9 10 11 12 13 14 15 16 17 18 19 20 21 22 23 24 25
000
FTUS43 KLSX 221700
TAFSTL
TAF
KSTL 221720Z 2218/2324 21008KT P6SM BKN250
     FM230600 VRB10G25KT 5SM TSRA BR BKN040CB
     FM230800 30006KT P6SM SCT040 BKN080
     FM231000 33006KT P6SM BKN030
     FM231400 02010KT P6SM SCT035=

USA.gov is the U.S. government's official web portal to all federal, state and local government web resources and services.